Time;durP1;ratioP1;P1;durP2;ratioP2;P2;SDS_P1;SDS_P2;PMS_P1;PMS_P2;Temp;Humidity;BMP_temperature;BMP_pressure;BME280_temperature;BME280_humidity;BME280_pressure;Samples;Min_cycle;Max_cycle;Signal;HPM_P1;HPM_P2
2023/01/14 00:01:09;;;;;;;2.57;0.33;;;;;;;;;;5037314;28;20365;-61
2023/01/14 00:03:36;;;;;;;0.07;0.07;;;;;;;;;;5037846;28;20431;-61
2023/01/14 00:06:04;;;;;;;1.50;0.40;;;;;;;;;;5042257;28;20030;-61
2023/01/14 00:08:32;;;;;;;0.53;0.47;;;;;;;;;;5054185;28;20017;-61
2023/01/14 00:11:07;;;;;;;3.33;0.60;;;;;;;;;;5047705;28;20053;-61
2023/01/14 00:13:33;;;;;;;;;;;;;;;;;;5029888;28;20025;-61
2023/01/14 00:16:01;;;;;;;0.00;0.00;;;;;;;;;;5029618;28;19911;-61
2023/01/14 00:18:28;;;;;;;0.40;0.30;;;;;;;;;;5029401;28;20080;-61
2023/01/14 00:21:05;;;;;;;2.37;0.70;;;;;;;;;;5029472;28;20026;-61
2023/01/14 00:23:34;;;;;;;0.20;0.10;;;;;;;;;;5043932;28;20033;-60
2023/01/14 00:26:02;;;;;;;0.30;0.20;;;;;;;;;;5054591;28;20430;-61
2023/01/14 00:28:29;;;;;;;5.03;0.40;;;;;;;;;;5053310;28;20025;-61
2023/01/14 00:31:22;;;;;;;1.63;0.70;;;;;;;;;;5054018;28;20471;-61
2023/01/14 00:33:50;;;;;;;0.20;0.20;;;;;;;;;;5050386;28;20436;-61
2023/01/14 00:36:18;;;;;;;0.10;0.10;;;;;;;;;;5049150;28;20032;-61
2023/01/14 00:38:49;;;;;;;0.20;0.13;;;;;;;;;;5049260;28;20025;-61
2023/01/14 00:41:21;;;;;;;0.73;0.53;;;;;;;;;;5044001;28;20466;-60
2023/01/14 00:43:49;;;;;;;0.30;0.20;;;;;;;;;;5031106;28;20025;-61
2023/01/14 00:46:17;;;;;;;0.20;0.13;;;;;;;;;;5053896;28;20025;-61
2023/01/14 00:48:44;;;;;;;1.30;0.40;;;;;;;;;;5036462;28;20037;-62
2023/01/14 00:51:12;;;;;;;0.70;0.40;;;;;;;;;;5034087;28;20021;-62
2023/01/14 00:53:40;;;;;;;0.40;0.27;;;;;;;;;;5037480;28;20032;-61
2023/01/14 00:56:07;;;;;;;5.30;0.27;;;;;;;;;;5052491;28;20033;-62
2023/01/14 00:58:34;;;;;;;0.20;0.10;;;;;;;;;;5047698;28;20036;-62
2023/01/14 01:01:02;;;;;;;0.00;0.00;;;;;;;;;;5035606;28;20038;-62
2023/01/14 01:03:32;;;;;;;21.67;0.70;;;;;;;;;;5048209;28;20859;-62
2023/01/14 01:05:58;;;;;;;0.70;0.20;;;;;;;;;;5048413;28;20493;-61
2023/01/14 01:08:26;;;;;;;0.40;0.23;;;;;;;;;;5036157;28;20484;-60
2023/01/14 01:10:54;;;;;;;0.10;0.10;;;;;;;;;;5053304;28;20028;-61
2023/01/14 01:13:25;;;;;;;0.00;0.00;;;;;;;;;;5035752;28;20030;-62
2023/01/14 01:15:52;;;;;;;0.20;0.20;;;;;;;;;;5032492;28;20424;-61
2023/01/14 01:18:20;;;;;;;0.30;0.20;;;;;;;;;;5033262;28;20021;-62
2023/01/14 01:20:47;;;;;;;0.73;0.30;;;;;;;;;;5032879;28;20414;-60
2023/01/14 01:23:14;;;;;;;0.20;0.20;;;;;;;;;;5030895;28;20025;-61
2023/01/14 01:25:42;;;;;;;0.00;0.00;;;;;;;;;;5028404;28;20045;-61
2023/01/14 01:28:08;;;;;;;0.10;0.10;;;;;;;;;;5028333;28;20033;-62
2023/01/14 01:30:35;;;;;;;0.07;0.07;;;;;;;;;;5033248;28;20029;-62
2023/01/14 01:33:02;;;;;;;1.30;0.30;;;;;;;;;;5049483;28;20036;-61
2023/01/14 01:35:29;;;;;;;2.47;0.20;;;;;;;;;;5033258;28;20037;-61
2023/01/14 01:37:58;;;;;;;0.73;0.40;;;;;;;;;;5042165;28;20044;-62
2023/01/14 01:40:25;;;;;;;0.80;0.63;;;;;;;;;;5034669;28;20033;-61
2023/01/14 01:42:54;;;;;;;0.67;0.50;;;;;;;;;;5027940;28;20059;-61
2023/01/14 01:46:00;;;;;;;0.20;0.13;;;;;;;;;;5027989;28;20033;-61
2023/01/14 01:48:30;;;;;;;1.55;0.73;;;;;;;;;;4966632;28;20113;-62
2023/01/14 01:51:08;;;;;;;0.20;0.20;;;;;;;;;;4967246;28;20493;-61
2023/01/14 01:53:37;;;;;;;1.30;0.40;;;;;;;;;;5011078;28;20036;-61
2023/01/14 01:56:05;;;;;;;1.90;0.77;;;;;;;;;;5052120;28;20031;-61
2023/01/14 01:58:32;;;;;;;1.33;0.60;;;;;;;;;;5052540;28;20033;-61
2023/01/14 02:01:00;;;;;;;3.50;0.80;;;;;;;;;;5052328;28;20059;-61
2023/01/14 02:03:32;;;;;;;0.83;0.60;;;;;;;;;;5050154;28;20035;-62
2023/01/14 02:05:59;;;;;;;1.30;0.43;;;;;;;;;;5027585;28;20025;-62
2023/01/14 02:08:26;;;;;;;0.77;0.53;;;;;;;;;;5033554;28;20407;-62
2023/01/14 02:10:57;;;;;;;1.17;0.73;;;;;;;;;;5027691;28;20033;-61
2023/01/14 02:13:32;;;;;;;1.13;0.83;;;;;;;;;;5032466;28;20112;-61
2023/01/14 02:16:17;;;;;;;1.27;0.80;;;;;;;;;;5043151;28;20467;-61
2023/01/14 02:19:04;;;;;;;2.00;0.90;;;;;;;;;;5033127;28;20104;-61
2023/01/14 02:21:33;;;;;;;1.67;1.10;;;;;;;;;;5049811;28;20075;-61
2023/01/14 02:24:18;;;;;;;1.77;0.57;;;;;;;;;;5045275;28;20022;-61
2023/01/14 02:27:08;;;;;;;1.35;0.80;;;;;;;;;;5041066;28;20033;-61
2023/01/14 02:29:53;;;;;;;1.57;0.77;;;;;;;;;;5039257;28;20083;-61
2023/01/14 02:32:20;;;;;;;;;;;;;;;;;;5046756;28;20033;-61
2023/01/14 02:34:49;;;;;;;1.30;0.93;;;;;;;;;;5033488;28;19959;-61
2023/01/14 02:37:19;;;;;;;1.20;0.93;;;;;;;;;;5048992;28;20036;-61
2023/01/14 02:39:54;;;;;;;0.70;0.70;;;;;;;;;;5037204;28;20056;-60
2023/01/14 02:45:22;;;;;;;0.70;0.60;;;;;;;;;;5032621;28;20040;-61
2023/01/14 02:47:51;;;;;;;3.00;1.60;;;;;;;;;;5048097;28;20102;-61
2023/01/14 02:50:38;;;;;;;2.27;1.40;;;;;;;;;;5042185;28;20115;-61
2023/01/14 02:53:11;;;;;;;3.03;1.00;;;;;;;;;;5046143;28;20032;-61
2023/01/14 02:55:39;;;;;;;1.43;1.07;;;;;;;;;;5044797;28;20508;-61
2023/01/14 02:58:29;;;;;;;2.27;1.20;;;;;;;;;;5044503;28;20021;-61
2023/01/14 03:01:14;;;;;;;2.77;1.70;;;;;;;;;;5027221;28;20041;-60
2023/01/14 03:04:10;;;;;;;3.38;1.60;;;;;;;;;;5034815;28;20024;-60
2023/01/14 03:06:40;;;;;;;1.83;1.00;;;;;;;;;;5025604;28;20046;-61
2023/01/14 03:09:18;;;;;;;1.33;0.93;;;;;;;;;;5048668;28;20464;-60
2023/01/14 03:11:53;;;;;;;1.17;1.00;;;;;;;;;;5038816;28;20554;-61
2023/01/14 03:14:27;;;;;;;3.33;1.13;;;;;;;;;;5034918;28;20430;-61
2023/01/14 03:17:00;;;;;;;5.28;0.85;;;;;;;;;;5033694;28;20099;-61
2023/01/14 03:19:34;;;;;;;1.57;1.13;;;;;;;;;;5040410;28;20017;-62
2023/01/14 03:22:02;;;;;;;0.60;0.50;;;;;;;;;;5044854;28;20021;-61
2023/01/14 03:24:32;;;;;;;0.57;0.50;;;;;;;;;;5050863;28;20033;-61
2023/01/14 03:27:04;;;;;;;0.53;0.53;;;;;;;;;;5049907;28;20078;-60
2023/01/14 03:29:34;;;;;;;2.07;1.07;;;;;;;;;;5049079;28;20021;-60
2023/01/14 03:32:03;;;;;;;0.73;0.60;;;;;;;;;;5049941;28;20044;-61
2023/01/14 03:34:33;;;;;;;0.60;0.40;;;;;;;;;;5046294;28;20029;-61
2023/01/14 03:37:01;;;;;;;6.27;1.27;;;;;;;;;;5044219;28;20048;-61
2023/01/14 03:39:29;;;;;;;1.07;0.80;;;;;;;;;;5044983;28;20025;-61
2023/01/14 03:42:18;;;;;;;1.40;0.80;;;;;;;;;;5040376;28;20029;-61
2023/01/14 03:44:44;;;;;;;1.03;0.53;;;;;;;;;;5036121;28;20025;-61
2023/01/14 03:47:11;;;;;;;0.80;0.60;;;;;;;;;;5034365;28;20033;-61
2023/01/14 03:49:38;;;;;;;10.57;1.10;;;;;;;;;;5035541;28;20529;-61
2023/01/14 03:52:14;;;;;;;1.40;0.87;;;;;;;;;;5035386;28;20399;-61
2023/01/14 03:54:46;;;;;;;1.17;0.87;;;;;;;;;;5038171;28;20065;-62
2023/01/14 03:57:25;;;;;;;1.60;1.17;;;;;;;;;;5039896;28;20069;-60
2023/01/14 03:59:58;;;;;;;15.07;0.90;;;;;;;;;;5049126;28;20025;-61
2023/01/14 04:02:25;;;;;;;2.33;1.20;;;;;;;;;;5038004;28;20037;-61
2023/01/14 04:04:52;;;;;;;10.47;1.87;;;;;;;;;;5029156;28;20025;-61
2023/01/14 04:07:18;;;;;;;1.43;1.03;;;;;;;;;;5034712;28;20021;-61
2023/01/14 04:09:45;;;;;;;1.17;0.87;;;;;;;;;;5034897;28;20033;-61
2023/01/14 04:12:12;;;;;;;1.03;0.77;;;;;;;;;;5043385;28;20058;-61
2023/01/14 04:17:23;;;;;;;5.35;1.10;;;;;;;;;;5045691;28;20102;-61
2023/01/14 04:19:50;;;;;;;0.90;0.73;;;;;;;;;;5048810;28;20037;-61
2023/01/14 04:22:17;;;;;;;0.47;0.47;;;;;;;;;;5029420;28;20129;-61
2023/01/14 04:24:43;;;;;;;2.67;1.10;;;;;;;;;;5029892;28;20061;-61
2023/01/14 04:27:10;;;;;;;0.43;0.43;;;;;;;;;;5029066;28;20049;-61
2023/01/14 04:29:37;;;;;;;1.27;1.10;;;;;;;;;;5034273;28;20028;-61
2023/01/14 04:32:03;;;;;;;1.20;1.00;;;;;;;;;;5034638;28;20026;-61
2023/01/14 04:34:30;;;;;;;1.67;0.87;;;;;;;;;;5034063;28;20490;-61
2023/01/14 04:36:57;;;;;;;8.90;0.97;;;;;;;;;;5034516;28;20638;-61
2023/01/14 04:39:23;;;;;;;3.10;1.03;;;;;;;;;;5033897;28;20036;-61
2023/01/14 04:44:35;;;;;;;1.52;1.13;;;;;;;;;;5034481;28;20052;-61
2023/01/14 04:47:02;;;;;;;1.27;0.93;;;;;;;;;;5040311;28;20029;-61
2023/01/14 04:49:28;;;;;;;2.30;0.97;;;;;;;;;;5048062;28;20029;-61
2023/01/14 04:51:55;;;;;;;6.10;1.17;;;;;;;;;;5046663;28;20029;-61
2023/01/14 04:54:22;;;;;;;1.60;1.13;;;;;;;;;;5043537;28;20286;-60
2023/01/14 04:56:48;;;;;;;0.43;0.33;;;;;;;;;;5033772;28;20030;-61
2023/01/14 04:59:15;;;;;;;0.83;0.73;;;;;;;;;;5034079;28;20032;-61
2023/01/14 05:01:42;;;;;;;0.87;0.73;;;;;;;;;;5048205;28;20736;-60
2023/01/14 05:04:08;;;;;;;1.50;1.03;;;;;;;;;;5031484;28;20266;-60
2023/01/14 05:06:35;;;;;;;1.20;0.90;;;;;;;;;;5034826;28;20606;-61
2023/01/14 05:09:02;;;;;;;1.33;0.80;;;;;;;;;;5039040;28;20281;-61
2023/01/14 05:11:29;;;;;;;0.53;0.53;;;;;;;;;;5028129;28;20768;-60
2023/01/14 05:13:55;;;;;;;0.93;0.73;;;;;;;;;;5032972;28;20266;-61
2023/01/14 05:16:23;;;;;;;1.70;1.13;;;;;;;;;;5044932;28;20317;-61
2023/01/14 05:18:51;;;;;;;0.57;0.53;;;;;;;;;;5049143;28;20659;-61
2023/01/14 05:21:18;;;;;;;2.07;1.30;;;;;;;;;;5032764;28;20273;-60
2023/01/14 05:23:45;;;;;;;2.53;1.50;;;;;;;;;;5033390;28;20338;-60
2023/01/14 05:26:11;;;;;;;1.97;1.20;;;;;;;;;;5028233;28;20586;-61
2023/01/14 05:28:38;;;;;;;3.67;1.03;;;;;;;;;;5029571;28;20273;-61
2023/01/14 05:31:05;;;;;;;2.53;1.33;;;;;;;;;;5047336;28;20262;-61
2023/01/14 05:33:32;;;;;;;1.00;0.70;;;;;;;;;;5042563;28;20328;-61
2023/01/14 05:35:59;;;;;;;0.87;0.70;;;;;;;;;;5035684;28;20356;-60
2023/01/14 05:38:26;;;;;;;1.03;0.80;;;;;;;;;;5052299;28;20292;-61
2023/01/14 05:40:53;;;;;;;0.97;0.73;;;;;;;;;;5031417;28;20261;-60
2023/01/14 05:46:07;;;;;;;1.50;0.88;;;;;;;;;;5052473;28;20331;-61
2023/01/14 05:48:34;;;;;;;0.80;0.50;;;;;;;;;;5047109;28;20035;-61
2023/01/14 05:51:01;;;;;;;0.37;0.37;;;;;;;;;;5042646;28;20273;-61
2023/01/14 05:53:28;;;;;;;9.80;1.30;;;;;;;;;;5027540;28;20328;-61
2023/01/14 05:55:55;;;;;;;1.87;1.20;;;;;;;;;;5034257;28;20271;-61
2023/01/14 05:58:22;;;;;;;0.70;0.53;;;;;;;;;;5032495;28;20385;-60
2023/01/14 06:06:31;;;;;;;1.60;1.17;;;;;;;;;;5037811;28;20048;-61
2023/01/14 06:08:59;;;;;;;1.10;0.80;;;;;;;;;;5045357;28;20146;-61
2023/01/14 06:11:26;;;;;;;1.47;1.00;;;;;;;;;;5044003;28;20714;-61
2023/01/14 06:13:55;;;;;;;1.27;0.90;;;;;;;;;;5032530;28;20335;-61
2023/01/14 06:16:22;;;;;;;1.23;0.83;;;;;;;;;;5027810;28;20263;-60
2023/01/14 06:18:48;;;;;;;1.77;0.70;;;;;;;;;;5041176;28;20300;-61
2023/01/14 06:21:17;;;;;;;2.13;0.53;;;;;;;;;;5032409;28;20582;-61
2023/01/14 06:23:43;;;;;;;0.50;0.50;;;;;;;;;;5032352;28;20290;-61
2023/01/14 06:26:11;;;;;;;0.93;0.70;;;;;;;;;;5032102;28;20269;-60
2023/01/14 06:28:38;;;;;;;1.20;0.83;;;;;;;;;;5032195;28;20357;-60
2023/01/14 06:31:23;;;;;;;3.27;1.60;;;;;;;;;;5050949;28;20289;-61
2023/01/14 06:33:50;;;;;;;0.80;0.63;;;;;;;;;;5046457;28;20301;-61
2023/01/14 06:36:17;;;;;;;0.57;0.57;;;;;;;;;;5036330;28;20029;-61
2023/01/14 06:38:43;;;;;;;1.30;0.80;;;;;;;;;;5026299;28;20346;-61
2023/01/14 06:41:10;;;;;;;0.43;0.43;;;;;;;;;;5046219;28;20277;-60
2023/01/14 06:43:40;;;;;;;0.30;0.30;;;;;;;;;;5051799;28;20288;-60
2023/01/14 06:46:06;;;;;;;0.50;0.47;;;;;;;;;;5051700;28;20374;-60
2023/01/14 06:48:33;;;;;;;0.30;0.30;;;;;;;;;;5039245;28;20263;-60
2023/01/14 06:51:03;;;;;;;6.03;1.10;;;;;;;;;;5049183;28;20281;-63
2023/01/14 06:53:30;;;;;;;1.90;1.03;;;;;;;;;;5049981;28;20686;-60
2023/01/14 06:56:00;;;;;;;0.73;0.50;;;;;;;;;;5046035;28;20349;-60
2023/01/14 06:58:27;;;;;;;0.67;0.50;;;;;;;;;;5046034;28;20286;-61
2023/01/14 07:00:57;;;;;;;0.60;0.50;;;;;;;;;;5028874;28;20775;-61
2023/01/14 07:03:24;;;;;;;1.10;1.00;;;;;;;;;;5032464;28;20281;-60
2023/01/14 07:05:51;;;;;;;0.40;0.40;;;;;;;;;;5051473;28;20262;-61
2023/01/14 07:08:18;;;;;;;1.17;0.83;;;;;;;;;;5051486;28;20268;-60
2023/01/14 07:10:49;;;;;;;0.70;0.70;;;;;;;;;;5035608;28;20294;-60
2023/01/14 07:13:16;;;;;;;5.97;1.03;;;;;;;;;;5032323;28;20632;-60
2023/01/14 07:15:43;;;;;;;1.60;0.97;;;;;;;;;;5035165;28;20262;-60
2023/01/14 07:18:10;;;;;;;0.77;0.40;;;;;;;;;;5036462;28;20297;-60
2023/01/14 07:20:37;;;;;;;1.17;0.70;;;;;;;;;;5035592;28;20282;-60
2023/01/14 07:23:04;;;;;;;1.00;0.80;;;;;;;;;;5047012;28;20269;-60
2023/01/14 07:25:31;;;;;;;0.87;0.67;;;;;;;;;;5049521;28;20269;-60
2023/01/14 07:27:57;;;;;;;0.50;0.40;;;;;;;;;;5055178;28;20268;-60
2023/01/14 07:30:24;;;;;;;0.57;0.50;;;;;;;;;;5043340;28;20266;-60
2023/01/14 07:32:51;;;;;;;0.83;0.70;;;;;;;;;;5035560;28;20270;-60
2023/01/14 07:35:17;;;;;;;1.70;0.77;;;;;;;;;;5035333;28;20269;-60
2023/01/14 07:37:44;;;;;;;0.87;0.63;;;;;;;;;;5035248;28;20691;-60
2023/01/14 07:40:11;;;;;;;1.03;0.57;;;;;;;;;;5039887;28;20269;-60
2023/01/14 07:42:38;;;;;;;0.57;0.33;;;;;;;;;;5049236;28;20629;-60
2023/01/14 07:45:04;;;;;;;0.70;0.60;;;;;;;;;;5048573;28;20273;-60
2023/01/14 07:47:31;;;;;;;1.80;0.60;;;;;;;;;;5049085;28;20352;-60
2023/01/14 07:49:58;;;;;;;0.30;0.30;;;;;;;;;;5045845;28;20737;-60
2023/01/14 07:52:24;;;;;;;0.40;0.40;;;;;;;;;;5041635;28;20709;-60
2023/01/14 07:54:51;;;;;;;0.40;0.40;;;;;;;;;;5040485;28;20266;-60
2023/01/14 07:57:18;;;;;;;1.13;0.60;;;;;;;;;;5034907;28;20309;-60
2023/01/14 07:59:45;;;;;;;0.57;0.50;;;;;;;;;;5034960;28;20263;-60
2023/01/14 08:02:12;;;;;;;2.20;0.77;;;;;;;;;;5033153;28;20268;-60
2023/01/14 08:04:39;;;;;;;0.20;0.20;;;;;;;;;;5048333;28;20262;-60
2023/01/14 08:07:09;;;;;;;0.50;0.50;;;;;;;;;;5033721;28;20364;-60
2023/01/14 08:09:36;;;;;;;0.20;0.20;;;;;;;;;;5048848;28;20278;-60
2023/01/14 08:12:02;;;;;;;1.07;0.83;;;;;;;;;;5050757;28;20365;-61
2023/01/14 08:14:29;;;;;;;0.27;0.27;;;;;;;;;;5034304;28;20761;-60
2023/01/14 08:16:56;;;;;;;1.03;0.87;;;;;;;;;;5039880;28;20294;-60
2023/01/14 08:19:22;;;;;;;0.70;0.57;;;;;;;;;;5054731;28;20392;-60
2023/01/14 08:21:49;;;;;;;0.77;0.70;;;;;;;;;;5053572;28;20277;-61
2023/01/14 08:24:15;;;;;;;4.40;0.90;;;;;;;;;;5033257;28;20277;-60
2023/01/14 08:26:42;;;;;;;0.73;0.53;;;;;;;;;;5048163;28;20270;-60
2023/01/14 08:29:09;;;;;;;0.63;0.63;;;;;;;;;;5048036;28;20274;-61
2023/01/14 08:31:35;;;;;;;1.10;0.80;;;;;;;;;;5046667;28;20281;-60
2023/01/14 08:34:02;;;;;;;0.50;0.43;;;;;;;;;;5034144;28;20372;-60
2023/01/14 08:36:28;;;;;;;0.20;0.20;;;;;;;;;;5034263;28;20295;-60
2023/01/14 08:38:55;;;;;;;1.00;0.90;;;;;;;;;;5034440;28;20348;-60
2023/01/14 08:41:22;;;;;;;1.80;1.33;;;;;;;;;;5049101;28;20285;-61
2023/01/14 08:43:51;;;;;;;1.13;0.70;;;;;;;;;;5049418;28;20285;-60
2023/01/14 08:46:18;;;;;;;0.57;0.33;;;;;;;;;;5029292;28;20325;-60
2023/01/14 08:48:45;;;;;;;0.70;0.53;;;;;;;;;;5028814;28;20262;-60
2023/01/14 08:51:13;;;;;;;0.60;0.50;;;;;;;;;;5028595;28;20275;-60
2023/01/14 08:53:40;;;;;;;0.57;0.53;;;;;;;;;;5031276;28;20358;-61
2023/01/14 08:56:07;;;;;;;0.40;0.40;;;;;;;;;;5045263;28;20771;-60
2023/01/14 08:58:35;;;;;;;0.97;0.67;;;;;;;;;;5033808;28;20301;-60
2023/01/14 09:01:03;;;;;;;0.57;0.50;;;;;;;;;;5034472;28;20274;-60
2023/01/14 09:03:30;;;;;;;0.63;0.50;;;;;;;;;;5051531;28;20262;-60
2023/01/14 09:05:57;;;;;;;1.00;0.83;;;;;;;;;;5038190;28;20683;-60
2023/01/14 09:19:27;;;;;;;0.43;0.40;;;;;;;;;;5053415;28;20174;-60
2023/01/14 09:21:54;;;;;;;0.40;0.40;;;;;;;;;;5053205;28;20021;-60
2023/01/14 09:24:21;;;;;;;0.40;0.40;;;;;;;;;;5053055;28;20288;-60
2023/01/14 09:26:47;;;;;;;3.33;1.20;;;;;;;;;;5041087;28;20277;-60
2023/01/14 09:29:14;;;;;;;1.30;0.90;;;;;;;;;;5047830;28;20774;-60
2023/01/14 09:31:41;;;;;;;0.63;0.63;;;;;;;;;;5033287;28;20275;-60
2023/01/14 09:34:07;;;;;;;0.33;0.33;;;;;;;;;;5027721;28;20354;-60
2023/01/14 09:36:34;;;;;;;0.70;0.50;;;;;;;;;;5036518;28;20286;-60
2023/01/14 09:39:01;;;;;;;0.90;0.57;;;;;;;;;;5046907;28;20285;-60
2023/01/14 09:41:30;;;;;;;1.00;0.60;;;;;;;;;;5053126;28;20744;-61
2023/01/14 09:43:56;;;;;;;0.87;0.67;;;;;;;;;;5052726;28;20266;-60
2023/01/14 09:46:25;;;;;;;0.40;0.40;;;;;;;;;;5044395;28;20263;-60
2023/01/14 09:48:52;;;;;;;1.83;0.70;;;;;;;;;;5032627;28;20298;-61
2023/01/14 09:51:19;;;;;;;0.50;0.50;;;;;;;;;;5032845;28;20255;-60
2023/01/14 09:53:55;;;;;;;0.70;0.50;;;;;;;;;;5036136;28;20361;-60
2023/01/14 09:56:34;;;;;;;0.80;0.80;;;;;;;;;;5028969;28;20823;-61
2023/01/14 09:59:06;;;;;;;3.43;1.93;;;;;;;;;;5026800;28;20250;-60
2023/01/14 10:01:36;;;;;;;1.63;1.53;;;;;;;;;;5027795;28;20255;-60
2023/01/14 10:04:21;;;;;;;2.17;1.63;;;;;;;;;;5032538;28;20259;-60
2023/01/14 10:06:49;;;;;;;2.72;2.20;;;;;;;;;;5032692;28;20247;-60
2023/01/14 10:09:21;;;;;;;1.10;1.00;;;;;;;;;;5032224;28;20032;-60
2023/01/14 10:11:50;;;;;;;0.87;0.77;;;;;;;;;;5032651;28;20705;-60
2023/01/14 10:14:19;;;;;;;0.63;0.63;;;;;;;;;;5048694;28;20349;-60
2023/01/14 10:16:47;;;;;;;1.50;1.23;;;;;;;;;;5039253;28;20290;-60
2023/01/14 10:19:23;;;;;;;1.03;0.87;;;;;;;;;;5026959;28;20639;-60
2023/01/14 10:22:00;;;;;;;1.93;1.30;;;;;;;;;;5029998;28;21808;-60
2023/01/14 10:24:27;;;;;;;1.90;1.13;;;;;;;;;;5043554;28;20791;-60
2023/01/14 10:26:54;;;;;;;1.13;0.47;;;;;;;;;;5052289;28;20258;-60
2023/01/14 10:29:22;;;;;;;0.83;0.80;;;;;;;;;;5035084;28;20263;-60
2023/01/14 10:31:55;;;;;;;2.23;0.67;;;;;;;;;;5051985;28;20270;-60
2023/01/14 10:34:47;;;;;;;0.53;0.53;;;;;;;;;;5038278;28;20258;-60
2023/01/14 10:37:15;;;;;;;0.50;0.50;;;;;;;;;;5026080;28;20886;-60
2023/01/14 10:39:51;;;;;;;1.53;1.23;;;;;;;;;;5026734;28;20263;-60
2023/01/14 10:42:24;;;;;;;0.70;0.60;;;;;;;;;;5026503;28;20289;-60
2023/01/14 10:44:50;;;;;;;0.30;0.30;;;;;;;;;;5043015;28;20301;-60
2023/01/14 10:47:18;;;;;;;0.80;0.50;;;;;;;;;;5049622;28;20778;-60
2023/01/14 10:49:44;;;;;;;1.57;1.07;;;;;;;;;;5051430;28;20752;-60
2023/01/14 10:52:32;;;;;;;0.67;0.60;;;;;;;;;;5051869;28;20329;-60
2023/01/14 10:55:00;;;;;;;0.93;0.87;;;;;;;;;;5033739;28;20344;-60
2023/01/14 10:57:28;;;;;;;2.77;1.17;;;;;;;;;;5046028;28;20332;-60
2023/01/14 10:59:58;;;;;;;0.93;0.70;;;;;;;;;;5028613;28;20298;-61
2023/01/14 11:02:35;;;;;;;1.07;0.80;;;;;;;;;;5031203;28;20608;-60
2023/01/14 11:05:06;;;;;;;1.43;0.93;;;;;;;;;;5028078;28;20349;-60
2023/01/14 11:07:38;;;;;;;0.37;0.37;;;;;;;;;;5026391;28;20318;-61
2023/01/14 11:10:18;;;;;;;2.10;0.90;;;;;;;;;;5031276;28;20261;-60
2023/01/14 11:12:45;;;;;;;0.70;0.60;;;;;;;;;;5031845;28;20775;-60
2023/01/14 11:15:30;;;;;;;8.67;1.33;;;;;;;;;;5050580;28;20826;-60
2023/01/14 11:18:15;;;;;;;0.85;0.73;;;;;;;;;;5047806;28;20286;-60
2023/01/14 11:20:42;;;;;;;0.60;0.50;;;;;;;;;;5030249;28;20017;-60
2023/01/14 11:23:16;;;;;;;1.33;0.93;;;;;;;;;;5027716;28;20494;-60
2023/01/14 11:25:42;;;;;;;2.70;1.20;;;;;;;;;;5046306;28;20882;-60
2023/01/14 11:28:15;;;;;;;0.53;0.53;;;;;;;;;;5045815;28;20364;-60
2023/01/14 11:30:43;;;;;;;0.93;0.60;;;;;;;;;;5033858;28;20281;-60
2023/01/14 11:33:19;;;;;;;0.90;0.70;;;;;;;;;;5034488;28;20267;-60
2023/01/14 11:35:51;;;;;;;0.53;0.53;;;;;;;;;;5050885;28;20272;-60
2023/01/14 11:38:21;;;;;;;0.60;0.60;;;;;;;;;;5051051;28;20339;-60
2023/01/14 11:43:59;;;;;;;0.87;0.77;;;;;;;;;;5042645;28;20351;-60
2023/01/14 11:46:26;;;;;;;7.90;1.20;;;;;;;;;;5026485;28;20625;-60
2023/01/14 11:49:11;;;;;;;0.77;0.50;;;;;;;;;;5025837;28;20274;-61
2023/01/14 11:51:40;;;;;;;0.52;0.43;;;;;;;;;;5025658;28;20259;-60
2023/01/14 11:54:15;;;;;;;1.23;1.10;;;;;;;;;;5038305;28;20087;-60
2023/01/14 11:56:42;;;;;;;0.63;0.60;;;;;;;;;;5051008;28;20317;-61
2023/01/14 11:59:15;;;;;;;0.57;0.57;;;;;;;;;;5051250;28;20266;-60
2023/01/14 12:01:52;;;;;;;0.30;0.30;;;;;;;;;;5041649;28;20270;-60
2023/01/14 12:04:21;;;;;;;0.50;0.50;;;;;;;;;;5040657;28;20295;-60
2023/01/14 12:07:03;;;;;;;0.20;0.20;;;;;;;;;;5039930;28;20267;-60
2023/01/14 12:09:44;;;;;;;0.83;0.77;;;;;;;;;;5039515;28;20269;-60
2023/01/14 12:12:20;;;;;;;1.40;1.27;;;;;;;;;;5032907;28;20270;-60
2023/01/14 12:17:37;;;;;;;0.53;0.53;;;;;;;;;;5053319;28;20428;-60
2023/01/14 12:20:07;;;;;;;0.97;0.63;;;;;;;;;;5045221;28;20284;-60
2023/01/14 12:22:42;;;;;;;0.97;0.87;;;;;;;;;;5034829;28;20259;-60
2023/01/14 12:25:11;;;;;;;7.03;1.45;;;;;;;;;;5048309;28;20251;-60
2023/01/14 12:27:44;;;;;;;0.50;0.50;;;;;;;;;;5052059;28;20025;-60
2023/01/14 12:30:14;;;;;;;0.40;0.40;;;;;;;;;;5048800;28;20258;-61
2023/01/14 12:32:43;;;;;;;1.37;1.10;;;;;;;;;;5048773;28;20262;-60
2023/01/14 12:35:14;;;;;;;0.57;0.53;;;;;;;;;;5048902;28;20258;-60
2023/01/14 12:38:02;;;;;;;0.60;0.60;;;;;;;;;;5033507;28;20279;-60
2023/01/14 12:46:13;;;;;;;0.93;0.60;;;;;;;;;;5033591;28;20294;-60
2023/01/14 12:48:40;;;;;;;0.60;0.60;;;;;;;;;;5034371;28;20982;-60
2023/01/14 12:51:15;;;;;;;0.47;0.47;;;;;;;;;;5029113;28;20266;-60
2023/01/14 12:53:49;;;;;;;1.08;0.98;;;;;;;;;;5028338;28;20354;-60
2023/01/14 12:56:21;;;;;;;0.30;0.30;;;;;;;;;;5028131;28;20068;-60
2023/01/14 12:58:59;;;;;;;3.97;1.30;;;;;;;;;;5028357;28;20038;-60
2023/01/14 13:01:28;;;;;;;1.27;0.77;;;;;;;;;;5036446;28;20276;-59
2023/01/14 13:04:05;;;;;;;0.40;0.40;;;;;;;;;;5052153;28;20265;-60
2023/01/14 13:06:32;;;;;;;2.50;0.80;;;;;;;;;;5040925;28;20262;-60
2023/01/14 13:09:00;;;;;;;2.43;1.10;;;;;;;;;;5049363;28;20331;-60
2023/01/14 13:11:28;;;;;;;1.33;1.23;;;;;;;;;;5032895;28;20704;-60
2023/01/14 13:13:56;;;;;;;0.50;0.50;;;;;;;;;;5033581;28;20320;-60
2023/01/14 13:16:41;;;;;;;0.87;0.70;;;;;;;;;;5041755;28;20741;-60
2023/01/14 13:19:26;;;;;;;0.22;0.22;;;;;;;;;;5027851;28;20271;-60
2023/01/14 13:21:56;;;;;;;1.83;1.50;;;;;;;;;;5029444;28;20021;-60
2023/01/14 13:24:30;;;;;;;1.63;1.20;;;;;;;;;;5042639;28;20374;-60
2023/01/14 13:26:58;;;;;;;1.27;0.67;;;;;;;;;;5053166;28;20258;-60
2023/01/14 13:29:26;;;;;;;1.30;0.93;;;;;;;;;;5053299;28;20268;-60
2023/01/14 13:31:54;;;;;;;1.83;1.50;;;;;;;;;;5037030;28;20266;-62
2023/01/14 13:34:21;;;;;;;0.70;0.70;;;;;;;;;;5040084;28;20274;-60
2023/01/14 13:37:11;;;;;;;0.57;0.57;;;;;;;;;;5036152;28;20353;-60
2023/01/14 13:39:45;;;;;;;0.43;0.43;;;;;;;;;;5036887;28;20262;-60
2023/01/14 13:42:17;;;;;;;0.80;0.80;;;;;;;;;;5047292;28;20269;-60
2023/01/14 13:44:48;;;;;;;3.60;1.40;;;;;;;;;;5038306;28;20422;-61
2023/01/14 13:47:17;;;;;;;4.80;1.37;;;;;;;;;;5033040;28;20694;-60
2023/01/14 13:49:52;;;;;;;2.43;1.27;;;;;;;;;;5032630;28;20266;-60
2023/01/14 13:52:24;;;;;;;3.05;1.90;;;;;;;;;;5032861;28;20377;-60
2023/01/14 13:55:04;;;;;;;1.60;1.30;;;;;;;;;;5040040;28;20044;-60
2023/01/14 13:57:38;;;;;;;1.43;1.33;;;;;;;;;;5028007;28;20765;-60
2023/01/14 14:00:08;;;;;;;5.13;2.40;;;;;;;;;;5027437;28;20263;-60
2023/01/14 14:02:46;;;;;;;3.00;2.33;;;;;;;;;;5029890;28;20270;-60
2023/01/14 14:05:24;;;;;;;2.90;2.13;;;;;;;;;;5031826;28;20669;-60
2023/01/14 14:07:52;;;;;;;5.30;3.03;;;;;;;;;;5048423;28;20753;-61
2023/01/14 14:10:24;;;;;;;4.70;2.40;;;;;;;;;;5032440;28;20282;-60
2023/01/14 14:16:02;;;;;;;5.30;3.10;;;;;;;;;;5032535;28;20269;-61
2023/01/14 14:18:36;;;;;;;5.00;3.40;;;;;;;;;;5040195;28;20294;-61
2023/01/14 14:21:06;;;;;;;2.03;1.83;;;;;;;;;;5046778;28;20278;-61
2023/01/14 14:23:36;;;;;;;6.77;3.20;;;;;;;;;;5046191;28;20270;-61
2023/01/14 14:26:11;;;;;;;1.90;1.70;;;;;;;;;;5046690;28;20266;-61
2023/01/14 14:28:40;;;;;;;4.45;2.80;;;;;;;;;;5034424;28;20275;-61
2023/01/14 14:31:08;;;;;;;2.47;1.80;;;;;;;;;;5032332;28;20034;-61
2023/01/14 14:33:40;;;;;;;3.07;2.23;;;;;;;;;;5046477;28;20732;-61
2023/01/14 14:36:14;;;;;;;3.07;1.97;;;;;;;;;;5051459;28;20304;-61
2023/01/14 14:38:45;;;;;;;4.25;2.50;;;;;;;;;;5048528;28;20716;-61
2023/01/14 14:41:17;;;;;;;3.47;2.33;;;;;;;;;;5029145;28;20510;-61
2023/01/14 14:43:54;;;;;;;2.87;2.10;;;;;;;;;;5041155;28;20120;-61
2023/01/14 14:46:23;;;;;;;2.07;1.57;;;;;;;;;;5042579;28;20083;-61
2023/01/14 14:48:50;;;;;;;2.73;1.70;;;;;;;;;;5026659;28;20044;-61
2023/01/14 14:51:22;;;;;;;2.00;1.37;;;;;;;;;;5029882;28;20060;-61
2023/01/14 14:53:49;;;;;;;3.43;1.50;;;;;;;;;;5031890;28;20032;-61
2023/01/14 14:56:18;;;;;;;1.57;1.27;;;;;;;;;;5034245;28;20060;-62
2023/01/14 14:58:47;;;;;;;3.97;1.83;;;;;;;;;;5051575;28;20437;-61
2023/01/14 15:01:14;;;;;;;3.20;1.53;;;;;;;;;;5051377;28;20104;-61
2023/01/14 15:03:43;;;;;;;3.10;1.80;;;;;;;;;;5036017;28;20037;-61
2023/01/14 15:06:12;;;;;;;3.93;1.43;;;;;;;;;;5027693;28;20108;-62
2023/01/14 15:08:43;;;;;;;2.97;1.70;;;;;;;;;;5046032;28;20031;-61
2023/01/14 15:11:11;;;;;;;2.57;1.80;;;;;;;;;;5036679;28;20022;-61
2023/01/14 15:13:44;;;;;;;1.73;1.33;;;;;;;;;;5029452;28;20041;-61
2023/01/14 15:16:10;;;;;;;2.37;1.37;;;;;;;;;;5032772;28;20026;-61
2023/01/14 15:18:45;;;;;;;1.90;1.50;;;;;;;;;;5047700;28;20174;-62
2023/01/14 15:21:13;;;;;;;1.60;1.13;;;;;;;;;;5051839;28;20029;-61
2023/01/14 15:23:44;;;;;;;2.60;1.43;;;;;;;;;;5051437;28;20025;-61
2023/01/14 15:26:16;;;;;;;4.43;1.90;;;;;;;;;;5045488;28;20040;-61
2023/01/14 15:28:44;;;;;;;3.70;1.80;;;;;;;;;;5026310;28;20017;-62
2023/01/14 15:31:18;;;;;;;1.97;1.47;;;;;;;;;;5037827;28;20025;-61
2023/01/14 15:34:00;;;;;;;5.57;1.48;;;;;;;;;;5046075;28;20032;-61
2023/01/14 15:36:27;;;;;;;1.87;1.13;;;;;;;;;;5053253;28;20041;-62
2023/01/14 15:38:54;;;;;;;0.97;0.83;;;;;;;;;;5055155;28;20496;-61
2023/01/14 15:41:23;;;;;;;0.83;0.67;;;;;;;;;;5046197;28;20033;-61
2023/01/14 15:43:50;;;;;;;1.40;0.97;;;;;;;;;;5054995;28;20029;-61